sensor_id;sensor_type;location;lat;lon;timestamp;P1;durP1;ratioP1;P2;durP2;ratioP2
72584;SDS011;60618;40.084;32.908;2023-09-30T00:02:04;8.87;;;5.80;;
72584;SDS011;60618;40.084;32.908;2023-09-30T00:04:31;10.43;;;6.25;;
72584;SDS011;60618;40.084;32.908;2023-09-30T00:06:58;9.25;;;5.85;;
72584;SDS011;60618;40.084;32.908;2023-09-30T00:09:25;9.32;;;6.18;;
72584;SDS011;60618;40.084;32.908;2023-09-30T00:11:52;8.57;;;5.43;;
72584;SDS011;60618;40.084;32.908;2023-09-30T00:14:19;8.17;;;5.37;;
72584;SDS011;60618;40.084;32.908;2023-09-30T00:16:45;10.55;;;6.10;;
72584;SDS011;60618;40.084;32.908;2023-09-30T00:19:12;10.25;;;6.18;;
72584;SDS011;60618;40.084;32.908;2023-09-30T00:21:39;10.50;;;6.57;;
72584;SDS011;60618;40.084;32.908;2023-09-30T00:24:06;10.27;;;6.38;;
72584;SDS011;60618;40.084;32.908;2023-09-30T00:26:33;11.30;;;6.80;;
72584;SDS011;60618;40.084;32.908;2023-09-30T00:29:00;10.13;;;6.28;;
72584;SDS011;60618;40.084;32.908;2023-09-30T00:31:27;11.40;;;6.70;;
72584;SDS011;60618;40.084;32.908;2023-09-30T00:33:54;9.82;;;6.60;;
72584;SDS011;60618;40.084;32.908;2023-09-30T00:36:21;9.57;;;6.63;;
72584;SDS011;60618;40.084;32.908;2023-09-30T00:38:49;13.23;;;7.10;;
72584;SDS011;60618;40.084;32.908;2023-09-30T00:41:16;10.60;;;6.70;;
72584;SDS011;60618;40.084;32.908;2023-09-30T00:43:45;9.88;;;6.20;;
72584;SDS011;60618;40.084;32.908;2023-09-30T00:48:49;10.20;;;6.10;;
72584;SDS011;60618;40.084;32.908;2023-09-30T00:51:16;10.03;;;6.20;;
72584;SDS011;60618;40.084;32.908;2023-09-30T00:53:44;9.35;;;6.38;;
72584;SDS011;60618;40.084;32.908;2023-09-30T00:56:11;10.20;;;6.80;;
72584;SDS011;60618;40.084;32.908;2023-09-30T00:58:39;8.65;;;5.95;;
72584;SDS011;60618;40.084;32.908;2023-09-30T01:01:06;11.15;;;7.03;;
72584;SDS011;60618;40.084;32.908;2023-09-30T01:03:33;12.40;;;7.30;;
72584;SDS011;60618;40.084;32.908;2023-09-30T01:06:00;12.25;;;7.45;;
72584;SDS011;60618;40.084;32.908;2023-09-30T01:08:27;12.25;;;6.88;;
72584;SDS011;60618;40.084;32.908;2023-09-30T01:10:54;11.90;;;7.18;;
72584;SDS011;60618;40.084;32.908;2023-09-30T01:13:22;14.07;;;7.38;;
72584;SDS011;60618;40.084;32.908;2023-09-30T01:15:48;12.70;;;6.10;;
72584;SDS011;60618;40.084;32.908;2023-09-30T01:18:16;10.55;;;6.00;;
72584;SDS011;60618;40.084;32.908;2023-09-30T01:20:43;9.88;;;6.20;;
72584;SDS011;60618;40.084;32.908;2023-09-30T01:23:10;8.85;;;5.78;;
72584;SDS011;60618;40.084;32.908;2023-09-30T01:25:37;9.07;;;6.53;;
72584;SDS011;60618;40.084;32.908;2023-09-30T01:28:07;10.90;;;6.40;;
72584;SDS011;60618;40.084;32.908;2023-09-30T01:30:34;8.23;;;5.70;;
72584;SDS011;60618;40.084;32.908;2023-09-30T01:33:01;10.88;;;5.97;;
72584;SDS011;60618;40.084;32.908;2023-09-30T01:35:28;8.50;;;5.78;;
72584;SDS011;60618;40.084;32.908;2023-09-30T01:37:55;11.25;;;5.95;;
72584;SDS011;60618;40.084;32.908;2023-09-30T01:40:23;10.33;;;6.30;;
72584;SDS011;60618;40.084;32.908;2023-09-30T01:42:50;10.15;;;6.03;;
72584;SDS011;60618;40.084;32.908;2023-09-30T01:45:16;8.05;;;5.68;;
72584;SDS011;60618;40.084;32.908;2023-09-30T01:47:44;8.73;;;6.03;;
72584;SDS011;60618;40.084;32.908;2023-09-30T01:50:11;11.20;;;5.95;;
72584;SDS011;60618;40.084;32.908;2023-09-30T01:52:37;9.93;;;5.77;;
72584;SDS011;60618;40.084;32.908;2023-09-30T01:55:05;8.57;;;5.55;;
72584;SDS011;60618;40.084;32.908;2023-09-30T01:57:32;9.23;;;5.90;;
72584;SDS011;60618;40.084;32.908;2023-09-30T01:59:59;8.63;;;5.50;;
72584;SDS011;60618;40.084;32.908;2023-09-30T02:02:26;9.45;;;5.50;;
72584;SDS011;60618;40.084;32.908;2023-09-30T02:04:53;8.77;;;5.60;;
72584;SDS011;60618;40.084;32.908;2023-09-30T02:07:20;9.15;;;5.50;;
72584;SDS011;60618;40.084;32.908;2023-09-30T02:09:47;9.18;;;5.60;;
72584;SDS011;60618;40.084;32.908;2023-09-30T02:12:15;8.52;;;5.45;;
72584;SDS011;60618;40.084;32.908;2023-09-30T02:14:42;7.82;;;5.28;;
72584;SDS011;60618;40.084;32.908;2023-09-30T02:17:09;9.50;;;5.40;;
72584;SDS011;60618;40.084;32.908;2023-09-30T02:19:36;9.57;;;5.20;;
72584;SDS011;60618;40.084;32.908;2023-09-30T02:22:03;7.68;;;5.03;;
72584;SDS011;60618;40.084;32.908;2023-09-30T02:24:30;8.05;;;5.45;;
72584;SDS011;60618;40.084;32.908;2023-09-30T02:26:57;9.57;;;5.60;;
72584;SDS011;60618;40.084;32.908;2023-09-30T02:29:24;10.17;;;5.17;;
72584;SDS011;60618;40.084;32.908;2023-09-30T02:31:51;8.73;;;5.35;;
72584;SDS011;60618;40.084;32.908;2023-09-30T02:34:18;8.10;;;4.85;;
72584;SDS011;60618;40.084;32.908;2023-09-30T02:36:45;9.85;;;5.28;;
72584;SDS011;60618;40.084;32.908;2023-09-30T02:39:12;9.60;;;5.63;;
72584;SDS011;60618;40.084;32.908;2023-09-30T02:41:39;11.70;;;6.67;;
72584;SDS011;60618;40.084;32.908;2023-09-30T02:44:06;11.75;;;7.55;;
72584;SDS011;60618;40.084;32.908;2023-09-30T02:49:56;11.68;;;7.93;;
72584;SDS011;60618;40.084;32.908;2023-09-30T02:52:24;12.70;;;7.60;;
72584;SDS011;60618;40.084;32.908;2023-09-30T02:54:51;11.40;;;7.20;;
72584;SDS011;60618;40.084;32.908;2023-09-30T02:57:18;11.10;;;6.97;;
72584;SDS011;60618;40.084;32.908;2023-09-30T02:59:46;12.57;;;7.93;;
72584;SDS011;60618;40.084;32.908;2023-09-30T03:02:14;12.75;;;7.90;;
72584;SDS011;60618;40.084;32.908;2023-09-30T03:04:41;12.85;;;8.00;;
72584;SDS011;60618;40.084;32.908;2023-09-30T03:07:08;14.80;;;8.50;;
72584;SDS011;60618;40.084;32.908;2023-09-30T03:09:35;11.48;;;7.38;;
72584;SDS011;60618;40.084;32.908;2023-09-30T03:12:02;13.90;;;8.40;;
72584;SDS011;60618;40.084;32.908;2023-09-30T03:14:30;11.68;;;7.82;;
72584;SDS011;60618;40.084;32.908;2023-09-30T03:16:58;14.27;;;8.48;;
72584;SDS011;60618;40.084;32.908;2023-09-30T03:19:25;14.67;;;8.83;;
72584;SDS011;60618;40.084;32.908;2023-09-30T03:21:52;13.07;;;8.80;;
72584;SDS011;60618;40.084;32.908;2023-09-30T03:24:19;13.45;;;8.30;;
72584;SDS011;60618;40.084;32.908;2023-09-30T03:26:46;12.63;;;7.00;;
72584;SDS011;60618;40.084;32.908;2023-09-30T03:29:13;13.52;;;7.45;;
72584;SDS011;60618;40.084;32.908;2023-09-30T03:31:40;10.50;;;6.43;;
72584;SDS011;60618;40.084;32.908;2023-09-30T03:34:07;11.80;;;6.70;;
72584;SDS011;60618;40.084;32.908;2023-09-30T03:36:34;11.27;;;6.90;;
72584;SDS011;60618;40.084;32.908;2023-09-30T03:39:01;10.82;;;5.90;;
72584;SDS011;60618;40.084;32.908;2023-09-30T03:41:28;8.75;;;5.30;;
72584;SDS011;60618;40.084;32.908;2023-09-30T03:43:55;8.03;;;5.17;;
72584;SDS011;60618;40.084;32.908;2023-09-30T03:46:23;11.38;;;7.28;;
72584;SDS011;60618;40.084;32.908;2023-09-30T03:48:50;13.77;;;9.25;;
72584;SDS011;60618;40.084;32.908;2023-09-30T03:51:17;13.95;;;9.00;;
72584;SDS011;60618;40.084;32.908;2023-09-30T03:53:44;15.60;;;9.63;;
72584;SDS011;60618;40.084;32.908;2023-09-30T03:56:11;14.80;;;8.90;;
72584;SDS011;60618;40.084;32.908;2023-09-30T03:58:39;14.18;;;9.15;;
72584;SDS011;60618;40.084;32.908;2023-09-30T04:01:07;14.68;;;9.52;;
72584;SDS011;60618;40.084;32.908;2023-09-30T04:03:35;14.00;;;9.00;;
72584;SDS011;60618;40.084;32.908;2023-09-30T04:06:02;14.23;;;9.25;;
72584;SDS011;60618;40.084;32.908;2023-09-30T04:08:29;15.73;;;9.60;;
72584;SDS011;60618;40.084;32.908;2023-09-30T04:10:56;14.32;;;9.50;;
72584;SDS011;60618;40.084;32.908;2023-09-30T04:13:23;14.43;;;9.70;;
72584;SDS011;60618;40.084;32.908;2023-09-30T04:15:50;15.48;;;9.15;;
72584;SDS011;60618;40.084;32.908;2023-09-30T04:18:17;14.38;;;8.73;;
72584;SDS011;60618;40.084;32.908;2023-09-30T04:20:44;14.73;;;9.10;;
72584;SDS011;60618;40.084;32.908;2023-09-30T04:23:11;14.60;;;9.05;;
72584;SDS011;60618;40.084;32.908;2023-09-30T04:25:38;14.23;;;9.07;;
72584;SDS011;60618;40.084;32.908;2023-09-30T04:28:05;13.27;;;8.93;;
72584;SDS011;60618;40.084;32.908;2023-09-30T04:30:32;13.27;;;9.02;;
72584;SDS011;60618;40.084;32.908;2023-09-30T04:33:00;10.50;;;6.07;;
72584;SDS011;60618;40.084;32.908;2023-09-30T04:35:27;9.73;;;6.97;;
72584;SDS011;60618;40.084;32.908;2023-09-30T04:37:54;11.02;;;6.32;;
72584;SDS011;60618;40.084;32.908;2023-09-30T04:40:21;12.35;;;7.35;;
72584;SDS011;60618;40.084;32.908;2023-09-30T04:42:48;8.60;;;5.10;;
72584;SDS011;60618;40.084;32.908;2023-09-30T04:45:15;8.50;;;4.80;;
72584;SDS011;60618;40.084;32.908;2023-09-30T04:47:42;7.35;;;3.85;;
72584;SDS011;60618;40.084;32.908;2023-09-30T04:50:09;7.90;;;4.50;;
72584;SDS011;60618;40.084;32.908;2023-09-30T04:52:37;7.32;;;4.38;;
72584;SDS011;60618;40.084;32.908;2023-09-30T04:55:04;6.25;;;3.88;;
72584;SDS011;60618;40.084;32.908;2023-09-30T04:57:31;10.17;;;4.30;;
72584;SDS011;60618;40.084;32.908;2023-09-30T04:59:59;14.50;;;6.88;;
72584;SDS011;60618;40.084;32.908;2023-09-30T05:02:26;12.45;;;7.43;;
72584;SDS011;60618;40.084;32.908;2023-09-30T05:04:54;12.70;;;7.78;;
72584;SDS011;60618;40.084;32.908;2023-09-30T05:07:21;19.90;;;9.65;;
72584;SDS011;60618;40.084;32.908;2023-09-30T05:09:48;26.83;;;10.17;;
72584;SDS011;60618;40.084;32.908;2023-09-30T05:12:15;24.65;;;9.93;;
72584;SDS011;60618;40.084;32.908;2023-09-30T05:14:43;15.85;;;8.20;;
72584;SDS011;60618;40.084;32.908;2023-09-30T05:17:10;28.45;;;9.35;;
72584;SDS011;60618;40.084;32.908;2023-09-30T05:19:37;24.60;;;9.38;;
72584;SDS011;60618;40.084;32.908;2023-09-30T05:22:04;21.30;;;9.70;;
72584;SDS011;60618;40.084;32.908;2023-09-30T05:24:31;21.27;;;9.70;;
72584;SDS011;60618;40.084;32.908;2023-09-30T05:26:58;19.63;;;8.63;;
72584;SDS011;60618;40.084;32.908;2023-09-30T05:29:25;22.40;;;8.80;;
72584;SDS011;60618;40.084;32.908;2023-09-30T05:31:52;19.75;;;9.07;;
72584;SDS011;60618;40.084;32.908;2023-09-30T05:34:19;17.23;;;8.57;;
72584;SDS011;60618;40.084;32.908;2023-09-30T05:36:46;13.45;;;6.50;;
72584;SDS011;60618;40.084;32.908;2023-09-30T05:39:15;17.23;;;8.00;;
72584;SDS011;60618;40.084;32.908;2023-09-30T05:41:42;14.00;;;6.72;;
72584;SDS011;60618;40.084;32.908;2023-09-30T05:44:09;13.23;;;6.93;;
72584;SDS011;60618;40.084;32.908;2023-09-30T05:46:36;13.83;;;6.33;;
72584;SDS011;60618;40.084;32.908;2023-09-30T05:49:03;19.83;;;7.43;;
72584;SDS011;60618;40.084;32.908;2023-09-30T05:51:30;12.32;;;6.90;;
72584;SDS011;60618;40.084;32.908;2023-09-30T05:53:57;16.95;;;7.13;;
72584;SDS011;60618;40.084;32.908;2023-09-30T05:56:24;21.13;;;7.75;;
72584;SDS011;60618;40.084;32.908;2023-09-30T05:58:51;13.50;;;7.00;;
72584;SDS011;60618;40.084;32.908;2023-09-30T06:01:18;16.52;;;7.68;;
72584;SDS011;60618;40.084;32.908;2023-09-30T06:03:46;16.23;;;7.50;;
72584;SDS011;60618;40.084;32.908;2023-09-30T06:06:13;15.80;;;7.10;;
72584;SDS011;60618;40.084;32.908;2023-09-30T06:08:40;11.70;;;6.28;;
72584;SDS011;60618;40.084;32.908;2023-09-30T06:11:16;14.53;;;6.63;;
72584;SDS011;60618;40.084;32.908;2023-09-30T06:13:44;11.55;;;6.20;;
72584;SDS011;60618;40.084;32.908;2023-09-30T06:16:12;11.25;;;6.30;;
72584;SDS011;60618;40.084;32.908;2023-09-30T06:18:39;14.43;;;6.40;;
72584;SDS011;60618;40.084;32.908;2023-09-30T06:21:06;10.45;;;5.93;;
72584;SDS011;60618;40.084;32.908;2023-09-30T06:23:33;13.00;;;6.87;;
72584;SDS011;60618;40.084;32.908;2023-09-30T06:26:00;14.43;;;7.20;;
72584;SDS011;60618;40.084;32.908;2023-09-30T06:28:27;11.20;;;7.03;;
72584;SDS011;60618;40.084;32.908;2023-09-30T06:30:55;13.57;;;7.13;;
72584;SDS011;60618;40.084;32.908;2023-09-30T06:33:22;12.57;;;7.10;;
72584;SDS011;60618;40.084;32.908;2023-09-30T06:35:48;11.30;;;7.13;;
72584;SDS011;60618;40.084;32.908;2023-09-30T06:38:16;10.98;;;6.95;;
72584;SDS011;60618;40.084;32.908;2023-09-30T06:40:44;13.95;;;7.43;;
72584;SDS011;60618;40.084;32.908;2023-09-30T06:43:12;12.13;;;7.90;;
72584;SDS011;60618;40.084;32.908;2023-09-30T06:45:42;14.73;;;7.72;;
72584;SDS011;60618;40.084;32.908;2023-09-30T06:48:10;12.50;;;7.10;;
72584;SDS011;60618;40.084;32.908;2023-09-30T06:50:44;11.65;;;7.47;;
72584;SDS011;60618;40.084;32.908;2023-09-30T06:53:15;11.35;;;6.90;;
72584;SDS011;60618;40.084;32.908;2023-09-30T06:55:43;13.07;;;7.45;;
72584;SDS011;60618;40.084;32.908;2023-09-30T06:58:10;12.52;;;7.40;;
72584;SDS011;60618;40.084;32.908;2023-09-30T07:00:38;10.97;;;7.20;;
72584;SDS011;60618;40.084;32.908;2023-09-30T07:03:07;13.18;;;7.05;;
72584;SDS011;60618;40.084;32.908;2023-09-30T07:05:35;14.18;;;7.63;;
72584;SDS011;60618;40.084;32.908;2023-09-30T07:08:03;12.38;;;7.20;;
72584;SDS011;60618;40.084;32.908;2023-09-30T07:10:30;14.18;;;7.47;;
72584;SDS011;60618;40.084;32.908;2023-09-30T07:12:57;13.73;;;7.80;;
72584;SDS011;60618;40.084;32.908;2023-09-30T07:15:24;13.63;;;7.47;;
72584;SDS011;60618;40.084;32.908;2023-09-30T07:17:51;12.40;;;7.45;;
72584;SDS011;60618;40.084;32.908;2023-09-30T07:20:18;14.00;;;8.23;;
72584;SDS011;60618;40.084;32.908;2023-09-30T07:22:46;12.60;;;7.55;;
72584;SDS011;60618;40.084;32.908;2023-09-30T07:25:28;13.63;;;7.47;;
72584;SDS011;60618;40.084;32.908;2023-09-30T07:27:56;15.40;;;7.78;;
72584;SDS011;60618;40.084;32.908;2023-09-30T07:30:24;12.43;;;8.23;;
72584;SDS011;60618;40.084;32.908;2023-09-30T07:32:51;14.07;;;8.05;;
72584;SDS011;60618;40.084;32.908;2023-09-30T07:35:18;17.83;;;7.80;;
72584;SDS011;60618;40.084;32.908;2023-09-30T07:37:45;14.77;;;7.10;;
72584;SDS011;60618;40.084;32.908;2023-09-30T07:40:12;14.50;;;7.95;;
72584;SDS011;60618;40.084;32.908;2023-09-30T07:42:39;14.77;;;7.60;;
72584;SDS011;60618;40.084;32.908;2023-09-30T07:45:07;11.85;;;7.60;;
72584;SDS011;60618;40.084;32.908;2023-09-30T07:47:35;12.68;;;7.40;;
72584;SDS011;60618;40.084;32.908;2023-09-30T07:50:02;17.80;;;7.73;;
72584;SDS011;60618;40.084;32.908;2023-09-30T07:52:29;15.10;;;8.52;;
72584;SDS011;60618;40.084;32.908;2023-09-30T07:54:56;15.20;;;8.30;;
72584;SDS011;60618;40.084;32.908;2023-09-30T07:57:23;15.32;;;8.05;;
72584;SDS011;60618;40.084;32.908;2023-09-30T07:59:50;16.10;;;8.30;;
72584;SDS011;60618;40.084;32.908;2023-09-30T08:02:17;14.80;;;7.87;;
72584;SDS011;60618;40.084;32.908;2023-09-30T08:04:44;16.70;;;7.35;;
72584;SDS011;60618;40.084;32.908;2023-09-30T08:07:11;14.40;;;7.53;;
72584;SDS011;60618;40.084;32.908;2023-09-30T08:09:38;12.13;;;7.68;;
72584;SDS011;60618;40.084;32.908;2023-09-30T08:12:05;14.07;;;7.57;;
72584;SDS011;60618;40.084;32.908;2023-09-30T08:14:32;13.47;;;7.57;;
72584;SDS011;60618;40.084;32.908;2023-09-30T08:16:59;15.55;;;7.90;;
72584;SDS011;60618;40.084;32.908;2023-09-30T08:19:27;16.08;;;8.10;;
72584;SDS011;60618;40.084;32.908;2023-09-30T08:21:54;12.73;;;7.68;;
72584;SDS011;60618;40.084;32.908;2023-09-30T08:24:21;12.60;;;7.70;;
72584;SDS011;60618;40.084;32.908;2023-09-30T08:26:48;16.90;;;8.63;;
72584;SDS011;60618;40.084;32.908;2023-09-30T08:29:15;13.27;;;7.75;;
72584;SDS011;60618;40.084;32.908;2023-09-30T08:31:41;14.65;;;8.35;;
72584;SDS011;60618;40.084;32.908;2023-09-30T08:34:09;15.65;;;8.70;;
72584;SDS011;60618;40.084;32.908;2023-09-30T08:36:36;15.25;;;8.43;;
72584;SDS011;60618;40.084;32.908;2023-09-30T08:39:03;13.40;;;7.87;;
72584;SDS011;60618;40.084;32.908;2023-09-30T08:41:31;14.20;;;8.35;;
72584;SDS011;60618;40.084;32.908;2023-09-30T08:44:00;14.00;;;7.68;;
72584;SDS011;60618;40.084;32.908;2023-09-30T08:46:31;15.98;;;8.02;;
72584;SDS011;60618;40.084;32.908;2023-09-30T08:49:03;18.10;;;8.52;;
72584;SDS011;60618;40.084;32.908;2023-09-30T08:51:31;17.50;;;9.23;;
72584;SDS011;60618;40.084;32.908;2023-09-30T08:53:59;16.27;;;9.70;;
72584;SDS011;60618;40.084;32.908;2023-09-30T08:56:27;17.65;;;9.80;;
72584;SDS011;60618;40.084;32.908;2023-09-30T08:58:58;16.73;;;8.80;;
72584;SDS011;60618;40.084;32.908;2023-09-30T09:01:30;12.63;;;8.10;;
72584;SDS011;60618;40.084;32.908;2023-09-30T09:03:58;14.83;;;8.97;;
72584;SDS011;60618;40.084;32.908;2023-09-30T09:06:25;16.85;;;10.50;;
72584;SDS011;60618;40.084;32.908;2023-09-30T09:08:53;20.13;;;12.50;;
72584;SDS011;60618;40.084;32.908;2023-09-30T09:11:21;16.88;;;11.13;;
72584;SDS011;60618;40.084;32.908;2023-09-30T09:13:51;15.50;;;10.02;;
72584;SDS011;60618;40.084;32.908;2023-09-30T09:16:19;16.93;;;10.40;;
72584;SDS011;60618;40.084;32.908;2023-09-30T09:18:47;16.67;;;11.52;;
72584;SDS011;60618;40.084;32.908;2023-09-30T09:21:15;19.05;;;12.50;;
72584;SDS011;60618;40.084;32.908;2023-09-30T09:23:44;19.92;;;12.90;;
72584;SDS011;60618;40.084;32.908;2023-09-30T09:26:12;21.23;;;12.70;;
72584;SDS011;60618;40.084;32.908;2023-09-30T09:28:56;19.10;;;11.70;;
72584;SDS011;60618;40.084;32.908;2023-09-30T09:31:31;9.02;;;5.70;;
72584;SDS011;60618;40.084;32.908;2023-09-30T09:34:00;9.30;;;4.88;;
72584;SDS011;60618;40.084;32.908;2023-09-30T09:36:40;6.95;;;4.38;;
72584;SDS011;60618;40.084;32.908;2023-09-30T09:39:09;8.15;;;5.60;;
72584;SDS011;60618;40.084;32.908;2023-09-30T09:41:48;10.10;;;5.20;;
72584;SDS011;60618;40.084;32.908;2023-09-30T09:44:17;8.82;;;5.00;;
72584;SDS011;60618;40.084;32.908;2023-09-30T09:46:47;8.93;;;5.85;;
72584;SDS011;60618;40.084;32.908;2023-09-30T09:49:15;11.18;;;6.07;;
72584;SDS011;60618;40.084;32.908;2023-09-30T09:51:44;9.85;;;6.30;;
72584;SDS011;60618;40.084;32.908;2023-09-30T09:54:12;15.17;;;6.20;;
72584;SDS011;60618;40.084;32.908;2023-09-30T09:56:41;12.90;;;5.38;;
72584;SDS011;60618;40.084;32.908;2023-09-30T09:59:13;11.38;;;5.43;;
72584;SDS011;60618;40.084;32.908;2023-09-30T10:01:41;11.32;;;5.50;;
72584;SDS011;60618;40.084;32.908;2023-09-30T10:04:10;14.15;;;5.85;;
72584;SDS011;60618;40.084;32.908;2023-09-30T10:06:38;9.37;;;5.77;;
72584;SDS011;60618;40.084;32.908;2023-09-30T10:09:07;9.77;;;5.93;;
72584;SDS011;60618;40.084;32.908;2023-09-30T10:11:39;9.75;;;6.13;;
72584;SDS011;60618;40.084;32.908;2023-09-30T10:14:06;9.10;;;5.55;;
72584;SDS011;60618;40.084;32.908;2023-09-30T10:19:14;9.63;;;7.00;;
72584;SDS011;60618;40.084;32.908;2023-09-30T10:24:44;11.18;;;7.10;;
72584;SDS011;60618;40.084;32.908;2023-09-30T10:29:57;11.25;;;7.40;;
72584;SDS011;60618;40.084;32.908;2023-09-30T10:35:19;11.57;;;7.40;;
72584;SDS011;60618;40.084;32.908;2023-09-30T10:37:47;12.68;;;7.13;;
72584;SDS011;60618;40.084;32.908;2023-09-30T10:40:28;10.93;;;6.55;;
72584;SDS011;60618;40.084;32.908;2023-09-30T10:43:00;13.45;;;6.75;;
72584;SDS011;60618;40.084;32.908;2023-09-30T10:45:43;10.80;;;6.30;;
72584;SDS011;60618;40.084;32.908;2023-09-30T10:48:32;10.25;;;7.22;;
72584;SDS011;60618;40.084;32.908;2023-09-30T10:50:58;11.75;;;7.70;;
72584;SDS011;60618;40.084;32.908;2023-09-30T10:53:27;11.70;;;7.25;;
72584;SDS011;60618;40.084;32.908;2023-09-30T10:55:55;9.93;;;6.63;;
72584;SDS011;60618;40.084;32.908;2023-09-30T11:01:10;8.95;;;6.45;;
72584;SDS011;60618;40.084;32.908;2023-09-30T11:03:39;9.25;;;6.00;;
72584;SDS011;60618;40.084;32.908;2023-09-30T11:06:11;9.32;;;5.97;;
72584;SDS011;60618;40.084;32.908;2023-09-30T11:08:40;8.98;;;5.95;;
72584;SDS011;60618;40.084;32.908;2023-09-30T11:11:13;8.43;;;6.03;;
72584;SDS011;60618;40.084;32.908;2023-09-30T11:13:40;8.45;;;5.97;;
72584;SDS011;60618;40.084;32.908;2023-09-30T11:16:07;8.98;;;6.07;;
72584;SDS011;60618;40.084;32.908;2023-09-30T11:18:34;7.35;;;5.60;;
72584;SDS011;60618;40.084;32.908;2023-09-30T11:21:06;8.95;;;5.32;;
72584;SDS011;60618;40.084;32.908;2023-09-30T11:23:35;9.20;;;6.17;;
72584;SDS011;60618;40.084;32.908;2023-09-30T11:26:03;9.50;;;6.30;;
72584;SDS011;60618;40.084;32.908;2023-09-30T11:28:35;9.95;;;6.15;;
72584;SDS011;60618;40.084;32.908;2023-09-30T11:31:11;8.35;;;5.55;;
72584;SDS011;60618;40.084;32.908;2023-09-30T11:33:48;8.30;;;6.43;;
72584;SDS011;60618;40.084;32.908;2023-09-30T11:36:17;9.00;;;5.97;;
72584;SDS011;60618;40.084;32.908;2023-09-30T11:38:45;10.75;;;6.03;;
72584;SDS011;60618;40.084;32.908;2023-09-30T11:41:13;10.90;;;6.95;;
72584;SDS011;60618;40.084;32.908;2023-09-30T11:43:57;9.80;;;6.53;;
72584;SDS011;60618;40.084;32.908;2023-09-30T11:46:31;10.05;;;6.90;;
72584;SDS011;60618;40.084;32.908;2023-09-30T11:49:02;12.40;;;8.23;;
72584;SDS011;60618;40.084;32.908;2023-09-30T11:51:34;14.20;;;8.52;;
72584;SDS011;60618;40.084;32.908;2023-09-30T11:54:09;11.50;;;8.20;;
72584;SDS011;60618;40.084;32.908;2023-09-30T11:56:36;13.25;;;7.90;;
72584;SDS011;60618;40.084;32.908;2023-09-30T11:59:03;11.48;;;8.50;;
72584;SDS011;60618;40.084;32.908;2023-09-30T12:01:31;11.13;;;7.70;;
72584;SDS011;60618;40.084;32.908;2023-09-30T12:03:58;10.43;;;7.88;;
72584;SDS011;60618;40.084;32.908;2023-09-30T12:06:26;11.65;;;8.07;;
72584;SDS011;60618;40.084;32.908;2023-09-30T12:08:53;11.45;;;7.50;;
72584;SDS011;60618;40.084;32.908;2023-09-30T12:11:20;13.48;;;7.93;;
72584;SDS011;60618;40.084;32.908;2023-09-30T12:13:47;12.60;;;7.43;;
72584;SDS011;60618;40.084;32.908;2023-09-30T12:16:15;9.52;;;6.78;;
72584;SDS011;60618;40.084;32.908;2023-09-30T12:18:45;10.20;;;7.47;;
72584;SDS011;60618;40.084;32.908;2023-09-30T12:21:12;10.90;;;7.70;;
72584;SDS011;60618;40.084;32.908;2023-09-30T12:23:40;11.48;;;7.70;;
72584;SDS011;60618;40.084;32.908;2023-09-30T12:26:09;15.70;;;10.00;;
72584;SDS011;60618;40.084;32.908;2023-09-30T12:28:41;16.27;;;9.52;;
72584;SDS011;60618;40.084;32.908;2023-09-30T12:31:08;13.25;;;9.75;;
72584;SDS011;60618;40.084;32.908;2023-09-30T12:33:35;11.32;;;8.20;;
72584;SDS011;60618;40.084;32.908;2023-09-30T12:36:04;12.48;;;9.20;;
72584;SDS011;60618;40.084;32.908;2023-09-30T12:38:31;15.17;;;9.57;;
72584;SDS011;60618;40.084;32.908;2023-09-30T12:40:58;13.23;;;9.23;;
72584;SDS011;60618;40.084;32.908;2023-09-30T12:43:25;14.13;;;9.80;;
72584;SDS011;60618;40.084;32.908;2023-09-30T12:45:52;12.27;;;9.25;;
72584;SDS011;60618;40.084;32.908;2023-09-30T12:48:20;14.93;;;9.15;;
72584;SDS011;60618;40.084;32.908;2023-09-30T12:50:47;17.23;;;8.67;;
72584;SDS011;60618;40.084;32.908;2023-09-30T12:53:14;15.90;;;9.50;;
72584;SDS011;60618;40.084;32.908;2023-09-30T12:55:41;13.70;;;8.80;;
72584;SDS011;60618;40.084;32.908;2023-09-30T12:58:08;13.23;;;9.20;;
72584;SDS011;60618;40.084;32.908;2023-09-30T13:00:36;13.30;;;8.95;;
72584;SDS011;60618;40.084;32.908;2023-09-30T13:03:03;13.50;;;9.10;;
72584;SDS011;60618;40.084;32.908;2023-09-30T13:05:30;13.10;;;9.02;;
72584;SDS011;60618;40.084;32.908;2023-09-30T13:07:57;13.98;;;8.35;;
72584;SDS011;60618;40.084;32.908;2023-09-30T13:10:25;10.98;;;7.40;;
72584;SDS011;60618;40.084;32.908;2023-09-30T13:12:52;8.23;;;5.55;;
72584;SDS011;60618;40.084;32.908;2023-09-30T13:15:19;7.83;;;4.83;;
72584;SDS011;60618;40.084;32.908;2023-09-30T13:17:46;11.10;;;5.57;;
72584;SDS011;60618;40.084;32.908;2023-09-30T13:20:14;8.73;;;5.65;;
72584;SDS011;60618;40.084;32.908;2023-09-30T13:22:41;10.60;;;5.55;;
72584;SDS011;60618;40.084;32.908;2023-09-30T13:25:08;9.40;;;4.90;;
72584;SDS011;60618;40.084;32.908;2023-09-30T13:27:36;13.97;;;5.40;;
72584;SDS011;60618;40.084;32.908;2023-09-30T13:30:03;20.17;;;5.90;;
72584;SDS011;60618;40.084;32.908;2023-09-30T13:32:30;14.63;;;6.70;;
72584;SDS011;60618;40.084;32.908;2023-09-30T13:34:57;11.25;;;6.57;;
72584;SDS011;60618;40.084;32.908;2023-09-30T13:37:25;14.68;;;6.30;;
72584;SDS011;60618;40.084;32.908;2023-09-30T13:39:52;11.53;;;5.60;;
72584;SDS011;60618;40.084;32.908;2023-09-30T13:42:19;9.48;;;6.07;;
72584;SDS011;60618;40.084;32.908;2023-09-30T13:44:46;11.50;;;5.65;;
72584;SDS011;60618;40.084;32.908;2023-09-30T13:47:13;10.98;;;6.10;;
72584;SDS011;60618;40.084;32.908;2023-09-30T13:49:40;11.27;;;6.70;;
72584;SDS011;60618;40.084;32.908;2023-09-30T13:52:07;11.23;;;6.60;;
72584;SDS011;60618;40.084;32.908;2023-09-30T13:54:35;13.13;;;7.18;;
72584;SDS011;60618;40.084;32.908;2023-09-30T13:57:02;13.32;;;7.30;;
72584;SDS011;60618;40.084;32.908;2023-09-30T13:59:29;11.20;;;7.28;;
72584;SDS011;60618;40.084;32.908;2023-09-30T14:01:56;11.70;;;7.00;;
72584;SDS011;60618;40.084;32.908;2023-09-30T14:04:23;12.87;;;6.80;;
72584;SDS011;60618;40.084;32.908;2023-09-30T14:06:50;11.43;;;7.25;;
72584;SDS011;60618;40.084;32.908;2023-09-30T14:09:17;10.75;;;6.28;;
72584;SDS011;60618;40.084;32.908;2023-09-30T14:12:00;12.48;;;6.57;;
72584;SDS011;60618;40.084;32.908;2023-09-30T14:14:28;10.00;;;6.30;;
72584;SDS011;60618;40.084;32.908;2023-09-30T14:16:55;12.87;;;7.10;;
72584;SDS011;60618;40.084;32.908;2023-09-30T14:19:22;10.88;;;6.97;;
72584;SDS011;60618;40.084;32.908;2023-09-30T14:21:49;12.43;;;7.18;;
72584;SDS011;60618;40.084;32.908;2023-09-30T14:24:16;9.90;;;6.65;;
72584;SDS011;60618;40.084;32.908;2023-09-30T14:26:43;11.30;;;6.78;;
72584;SDS011;60618;40.084;32.908;2023-09-30T14:29:10;11.97;;;7.40;;
72584;SDS011;60618;40.084;32.908;2023-09-30T14:31:37;13.00;;;7.18;;
72584;SDS011;60618;40.084;32.908;2023-09-30T14:34:04;10.65;;;7.28;;
72584;SDS011;60618;40.084;32.908;2023-09-30T14:36:31;12.65;;;7.65;;
72584;SDS011;60618;40.084;32.908;2023-09-30T14:38:59;12.93;;;7.25;;
72584;SDS011;60618;40.084;32.908;2023-09-30T14:41:39;10.93;;;7.23;;
72584;SDS011;60618;40.084;32.908;2023-09-30T14:44:07;12.20;;;6.70;;
72584;SDS011;60618;40.084;32.908;2023-09-30T14:46:34;10.85;;;6.70;;
72584;SDS011;60618;40.084;32.908;2023-09-30T14:49:02;10.95;;;6.53;;